createdAt,value
2023-01-29T00:01:12.228Z,5.10
2023-01-29T00:04:13.744Z,5.47
2023-01-29T00:07:15.198Z,5.03
2023-01-29T00:10:17.277Z,5.10
2023-01-29T00:13:18.889Z,5.03
2023-01-29T00:16:20.921Z,5.23
2023-01-29T00:19:22.349Z,5.40
2023-01-29T00:22:24.248Z,5.03
2023-01-29T00:25:25.651Z,4.77
2023-01-29T00:28:27.069Z,4.83
2023-01-29T00:31:28.937Z,5.57
2023-01-29T00:34:30.403Z,4.87
2023-01-29T00:37:31.905Z,5.37
2023-01-29T00:40:56.436Z,4.53
2023-01-29T00:44:17.285Z,4.33
2023-01-29T00:47:30.678Z,4.60
2023-01-29T00:50:32.480Z,4.40
2023-01-29T00:53:33.914Z,4.23
2023-01-29T00:56:36.618Z,4.30
2023-01-29T00:59:38.153Z,3.57
2023-01-29T01:02:57.909Z,4.57
2023-01-29T01:06:09.110Z,4.40
2023-01-29T01:09:29.686Z,4.53
2023-01-29T01:12:31.911Z,4.80
2023-01-29T01:15:40.308Z,4.70
2023-01-29T01:18:42.084Z,4.67
2023-01-29T01:21:45.417Z,4.93
2023-01-29T01:24:46.798Z,4.87
2023-01-29T01:27:48.301Z,4.87
2023-01-29T01:30:49.716Z,4.87
2023-01-29T01:33:51.555Z,4.50
2023-01-29T01:36:58.357Z,4.33
2023-01-29T01:39:59.820Z,4.47
2023-01-29T01:43:02.191Z,4.67
2023-01-29T01:46:03.671Z,4.73
2023-01-29T01:49:16.011Z,4.50
2023-01-29T01:52:19.435Z,4.67
2023-01-29T01:55:24.571Z,4.67
2023-01-29T01:58:30.569Z,4.50
2023-01-29T02:01:32.318Z,4.63
2023-01-29T02:04:52.119Z,4.30
2023-01-29T02:08:12.725Z,4.57
2023-01-29T02:11:14.473Z,4.63
2023-01-29T02:14:16.385Z,5.07
2023-01-29T02:17:19.974Z,4.57
2023-01-29T02:20:27.724Z,4.87
2023-01-29T02:24:00.425Z,4.53
2023-01-29T02:27:19.842Z,4.57
2023-01-29T02:30:33.570Z,5.10
2023-01-29T02:34:02.821Z,4.70
2023-01-29T02:37:12.230Z,4.60
2023-01-29T02:40:18.580Z,4.47
2023-01-29T02:43:38.883Z,4.50
2023-01-29T02:46:54.355Z,4.43
2023-01-29T02:50:04.261Z,4.80
2023-01-29T02:53:15.636Z,4.10
2023-01-29T02:56:24.041Z,4.27
2023-01-29T02:59:32.432Z,4.73
2023-01-29T03:02:37.885Z,4.50
2023-01-29T03:05:58.405Z,4.60
2023-01-29T03:09:07.331Z,4.40
2023-01-29T03:12:33.766Z,4.47
2023-01-29T03:16:01.418Z,3.87
2023-01-29T03:19:38.121Z,3.80
2023-01-29T03:22:56.151Z,4.23
2023-01-29T03:26:18.212Z,4.60
2023-01-29T03:29:39.005Z,3.97
2023-01-29T03:32:44.430Z,4.17
2023-01-29T03:36:02.352Z,4.50
2023-01-29T03:39:08.999Z,4.27
2023-01-29T03:42:26.938Z,4.20
2023-01-29T03:46:18.618Z,3.97
2023-01-29T03:49:53.397Z,4.13
2023-01-29T03:53:08.425Z,4.30
2023-01-29T03:56:15.794Z,4.10
2023-01-29T03:59:31.337Z,4.20
2023-01-29T04:02:56.930Z,4.00
2023-01-29T04:06:09.790Z,4.50
2023-01-29T04:09:25.021Z,4.30
2023-01-29T04:12:34.924Z,3.70
2023-01-29T04:15:46.322Z,6.67
2023-01-29T04:18:48.778Z,4.53
2023-01-29T04:22:02.003Z,3.97
2023-01-29T04:25:15.874Z,4.20
2023-01-29T04:28:43.689Z,4.00
2023-01-29T04:31:57.757Z,3.90
2023-01-29T04:35:29.463Z,4.00
2023-01-29T04:38:49.485Z,3.93
2023-01-29T04:42:22.092Z,3.00
2023-01-29T04:45:41.982Z,3.20
2023-01-29T04:48:58.902Z,3.80
2023-01-29T04:52:20.105Z,4.43
2023-01-29T04:55:51.320Z,4.80
2023-01-29T04:59:03.058Z,3.90
2023-01-29T05:02:06.174Z,3.50
2023-01-29T05:05:09.460Z,3.83
2023-01-29T05:08:14.068Z,3.70
2023-01-29T05:11:17.059Z,3.37
2023-01-29T05:14:20.074Z,3.63
2023-01-29T05:17:21.602Z,3.17
2023-01-29T05:20:23.042Z,3.53
2023-01-29T05:23:24.437Z,3.77
2023-01-29T05:26:45.967Z,4.00
2023-01-29T05:29:47.859Z,3.57
2023-01-29T05:32:49.268Z,3.93
2023-01-29T05:35:51.174Z,4.03
2023-01-29T05:38:52.584Z,3.63
2023-01-29T05:41:54.114Z,3.77
2023-01-29T05:44:55.514Z,3.83
2023-01-29T05:47:58.490Z,4.07
2023-01-29T05:51:01.237Z,4.23
2023-01-29T05:54:02.673Z,4.23
2023-01-29T05:57:04.112Z,4.47
2023-01-29T06:00:06.664Z,4.60
2023-01-29T06:03:13.679Z,4.30
2023-01-29T06:06:15.738Z,4.33
2023-01-29T06:09:17.203Z,4.23
2023-01-29T06:12:18.659Z,4.43
2023-01-29T06:15:20.040Z,4.43
2023-01-29T06:18:21.478Z,4.10
2023-01-29T06:21:22.832Z,4.33
2023-01-29T06:24:24.300Z,4.40
2023-01-29T06:27:25.830Z,4.57
2023-01-29T06:30:28.329Z,4.00
2023-01-29T06:33:29.747Z,4.70
2023-01-29T06:36:31.291Z,4.43
2023-01-29T06:39:32.668Z,4.20
2023-01-29T06:42:37.169Z,4.90
2023-01-29T06:45:38.581Z,4.30
2023-01-29T06:48:39.983Z,4.80
2023-01-29T06:51:41.387Z,4.40
2023-01-29T06:54:42.824Z,4.67
2023-01-29T06:57:44.198Z,4.47
2023-01-29T07:00:45.638Z,4.93
2023-01-29T07:03:49.946Z,5.40
2023-01-29T07:06:51.377Z,5.20
2023-01-29T07:09:52.751Z,5.77
2023-01-29T07:12:54.123Z,5.23
2023-01-29T07:16:02.483Z,5.23
2023-01-29T07:19:03.957Z,4.97
2023-01-29T07:22:05.669Z,6.20
2023-01-29T07:25:07.853Z,6.30
2023-01-29T07:28:09.295Z,6.07
2023-01-29T07:31:13.158Z,5.50
2023-01-29T07:34:14.606Z,5.17
2023-01-29T07:37:15.999Z,5.30
2023-01-29T07:40:17.766Z,5.13
2023-01-29T07:43:19.445Z,5.20
2023-01-29T07:46:20.966Z,5.00
2023-01-29T07:49:22.353Z,5.47
2023-01-29T07:52:23.788Z,5.50
2023-01-29T07:55:25.325Z,6.53
2023-01-29T07:58:26.714Z,6.20
2023-01-29T08:01:28.136Z,5.77
2023-01-29T08:04:29.582Z,5.00
2023-01-29T08:07:31.026Z,5.40
2023-01-29T08:10:33.004Z,5.23
2023-01-29T08:13:34.556Z,5.50
2023-01-29T08:16:36.016Z,5.87
2023-01-29T08:19:37.406Z,5.13
2023-01-29T08:22:38.858Z,5.00
2023-01-29T08:25:40.323Z,5.47
2023-01-29T08:28:41.746Z,5.37
2023-01-29T08:31:43.296Z,5.10
2023-01-29T08:34:44.726Z,5.40
2023-01-29T08:37:53.176Z,5.10
2023-01-29T08:40:54.555Z,5.30
2023-01-29T08:43:57.145Z,5.83
2023-01-29T08:46:58.599Z,5.40
2023-01-29T08:49:59.976Z,5.60
2023-01-29T08:53:03.518Z,5.80
2023-01-29T08:56:05.232Z,6.43
2023-01-29T08:59:06.671Z,5.23
2023-01-29T09:02:10.870Z,5.20
2023-01-29T09:05:12.275Z,6.10
2023-01-29T09:08:13.718Z,5.63
2023-01-29T09:11:15.114Z,5.90
2023-01-29T09:14:16.726Z,5.80
2023-01-29T09:17:18.122Z,4.53
2023-01-29T09:20:20.067Z,5.23
2023-01-29T09:23:22.206Z,5.60
2023-01-29T09:26:23.622Z,4.60
2023-01-29T09:29:25.092Z,4.77
2023-01-29T09:32:51.619Z,4.73
2023-01-29T09:35:48.086Z,4.97
2023-01-29T09:38:49.462Z,4.17
2023-01-29T09:42:19.183Z,4.77
2023-01-29T09:45:26.511Z,4.20
2023-01-29T09:48:31.649Z,4.77
2023-01-29T09:51:48.970Z,4.50
2023-01-29T09:55:02.201Z,4.63
2023-01-29T09:58:22.792Z,4.93
2023-01-29T10:01:36.766Z,4.70
2023-01-29T10:04:50.989Z,5.03
2023-01-29T10:08:11.077Z,5.93
2023-01-29T10:11:20.801Z,6.53
2023-01-29T10:14:52.832Z,6.13
2023-01-29T10:18:19.152Z,6.13
2023-01-29T10:21:48.529Z,5.67
2023-01-29T10:24:54.375Z,6.90
2023-01-29T10:27:59.121Z,6.27
2023-01-29T10:31:36.385Z,6.60
2023-01-29T10:34:46.390Z,7.70
2023-01-29T10:37:48.524Z,9.00
2023-01-29T10:41:11.821Z,8.33
2023-01-29T10:44:13.528Z,7.80
2023-01-29T10:47:42.406Z,8.40
2023-01-29T10:50:54.966Z,8.77
2023-01-29T10:54:08.476Z,7.03
2023-01-29T10:57:15.209Z,7.67
2023-01-29T11:00:26.949Z,7.40
2023-01-29T11:03:31.244Z,7.83
2023-01-29T11:06:35.117Z,8.10
2023-01-29T11:09:42.374Z,8.00
2023-01-29T11:12:45.676Z,8.77
2023-01-29T11:15:47.093Z,8.70
2023-01-29T11:18:53.363Z,8.37
2023-01-29T11:22:00.885Z,9.23
2023-01-29T11:25:20.320Z,8.53
2023-01-29T11:28:41.726Z,8.43
2023-01-29T11:31:43.177Z,8.30
2023-01-29T11:35:15.689Z,8.50
2023-01-29T11:38:19.373Z,8.23
2023-01-29T11:41:22.461Z,7.53
2023-01-29T11:44:38.460Z,7.03
2023-01-29T11:47:39.910Z,8.53
2023-01-29T11:50:41.703Z,7.90
2023-01-29T11:53:49.326Z,8.07
2023-01-29T11:56:51.647Z,7.77
2023-01-29T11:59:55.380Z,8.20
2023-01-29T12:03:06.210Z,8.53
2023-01-29T12:06:18.129Z,8.90
2023-01-29T12:09:27.189Z,7.83
2023-01-29T12:12:30.387Z,8.73
2023-01-29T12:15:31.916Z,8.90
2023-01-29T12:18:42.420Z,9.37
2023-01-29T12:21:57.982Z,8.77
2023-01-29T12:25:22.808Z,9.07
2023-01-29T12:28:54.275Z,9.37
2023-01-29T12:32:12.597Z,9.10
2023-01-29T12:35:26.062Z,8.60
2023-01-29T12:38:27.540Z,9.00
2023-01-29T12:41:36.922Z,9.00
2023-01-29T12:44:44.944Z,8.77
2023-01-29T12:47:53.825Z,7.70
2023-01-29T12:51:09.419Z,8.03
2023-01-29T12:54:16.357Z,7.87
2023-01-29T12:57:53.939Z,8.00
2023-01-29T13:01:00.815Z,8.00
2023-01-29T13:04:17.738Z,8.47
2023-01-29T13:07:25.983Z,8.60
2023-01-29T13:10:41.096Z,7.37
2023-01-29T13:14:00.955Z,8.53
2023-01-29T13:17:40.552Z,7.80
2023-01-29T13:20:43.405Z,7.73
2023-01-29T13:23:57.786Z,8.03
2023-01-29T13:26:59.295Z,7.23
2023-01-29T13:30:01.505Z,8.50
2023-01-29T13:33:09.452Z,7.70
2023-01-29T13:36:20.020Z,7.47
2023-01-29T13:39:34.235Z,7.10
2023-01-29T13:42:43.714Z,7.33
2023-01-29T13:45:45.793Z,7.23
2023-01-29T13:48:50.827Z,7.57
2023-01-29T13:51:52.324Z,7.40
2023-01-29T13:54:57.761Z,7.43
2023-01-29T13:58:03.698Z,7.80
2023-01-29T14:01:05.174Z,7.60
2023-01-29T14:04:18.914Z,8.30
2023-01-29T14:07:49.869Z,7.90
2023-01-29T14:11:16.849Z,8.00
2023-01-29T14:14:51.126Z,7.83
2023-01-29T14:18:10.662Z,7.97
2023-01-29T14:21:31.916Z,8.77
2023-01-29T14:24:33.814Z,7.57
2023-01-29T14:27:36.880Z,8.43
2023-01-29T14:30:40.869Z,8.60
2023-01-29T14:33:43.552Z,8.63
2023-01-29T14:36:47.955Z,9.07
2023-01-29T14:39:57.437Z,8.97
2023-01-29T14:43:06.770Z,9.07
2023-01-29T14:46:33.202Z,8.70
2023-01-29T14:49:52.905Z,7.70
2023-01-29T14:53:00.105Z,7.93
2023-01-29T14:56:29.320Z,8.20
2023-01-29T14:59:37.720Z,7.57
2023-01-29T15:02:42.976Z,8.13
2023-01-29T15:05:45.062Z,8.30
2023-01-29T15:08:56.877Z,7.80
2023-01-29T15:12:28.665Z,8.40
2023-01-29T15:15:38.180Z,8.37
2023-01-29T15:18:42.289Z,8.80
2023-01-29T15:22:07.935Z,8.60
2023-01-29T15:25:15.993Z,8.53
2023-01-29T15:28:17.585Z,8.60
2023-01-29T15:31:20.296Z,7.90
2023-01-29T15:34:22.256Z,8.57
2023-01-29T15:37:29.682Z,7.80
2023-01-29T15:40:31.787Z,9.20
2023-01-29T15:43:42.714Z,7.97
2023-01-29T15:46:49.840Z,7.90
2023-01-29T15:49:52.197Z,8.00
2023-01-29T15:52:55.168Z,7.77
2023-01-29T15:55:58.050Z,7.97
2023-01-29T15:59:04.025Z,7.93
2023-01-29T16:02:29.826Z,8.33
2023-01-29T16:05:32.955Z,8.97
2023-01-29T16:08:35.876Z,8.50
2023-01-29T16:11:37.540Z,8.57
2023-01-29T16:14:40.776Z,7.87
2023-01-29T16:17:42.283Z,8.90
2023-01-29T16:20:47.221Z,8.83
2023-01-29T16:23:52.148Z,9.10
2023-01-29T16:27:00.265Z,8.80
2023-01-29T16:30:02.124Z,8.63
2023-01-29T16:33:05.745Z,8.93
2023-01-29T16:36:18.243Z,10.30
2023-01-29T16:39:27.575Z,10.83
2023-01-29T16:42:32.200Z,11.50
2023-01-29T16:45:33.601Z,12.20
2023-01-29T16:48:35.115Z,12.00
2023-01-29T16:51:39.072Z,12.87
2023-01-29T16:54:43.053Z,12.53
2023-01-29T16:57:49.733Z,11.83
2023-01-29T17:01:07.659Z,11.63
2023-01-29T17:04:18.658Z,12.57
2023-01-29T17:07:22.155Z,14.67
2023-01-29T17:10:24.799Z,15.27
2023-01-29T17:13:45.185Z,15.53
2023-01-29T17:16:50.701Z,11.77
2023-01-29T17:19:52.074Z,9.47
2023-01-29T17:22:53.632Z,9.30
2023-01-29T17:25:55.506Z,8.43
2023-01-29T17:28:56.949Z,8.20
2023-01-29T17:32:00.072Z,8.40
2023-01-29T17:35:01.694Z,7.90
2023-01-29T17:38:03.421Z,7.67
2023-01-29T17:41:25.559Z,7.57
2023-01-29T17:44:26.951Z,8.30
2023-01-29T17:47:28.550Z,8.07
2023-01-29T17:50:32.156Z,8.37
2023-01-29T17:53:45.230Z,8.60
2023-01-29T17:56:48.173Z,8.60
2023-01-29T17:59:49.689Z,8.03
2023-01-29T18:02:51.757Z,7.83
2023-01-29T18:05:53.175Z,9.47
2023-01-29T18:08:54.691Z,8.47
2023-01-29T18:11:56.060Z,10.93
2023-01-29T18:14:57.494Z,13.67
2023-01-29T18:17:59.315Z,19.87
2023-01-29T18:21:00.833Z,13.10
2023-01-29T18:24:02.296Z,12.50
2023-01-29T18:27:03.837Z,10.57
2023-01-29T18:30:05.790Z,9.37
2023-01-29T18:33:07.249Z,9.37
2023-01-29T18:36:08.938Z,9.87
2023-01-29T18:39:10.329Z,12.43
2023-01-29T18:42:11.812Z,14.27
2023-01-29T18:45:15.252Z,19.33
2023-01-29T18:48:16.985Z,21.00
2023-01-29T18:51:18.479Z,23.43
2023-01-29T18:54:21.419Z,19.70
2023-01-29T18:58:25.920Z,16.63
2023-01-29T19:00:44.236Z,18.67
2023-01-29T19:03:45.650Z,18.23
2023-01-29T19:06:47.032Z,18.90
2023-01-29T19:09:50.213Z,18.83
2023-01-29T19:12:51.609Z,16.30
2023-01-29T19:15:53.019Z,16.43
2023-01-29T19:18:55.963Z,13.50
2023-01-29T19:21:57.419Z,11.77
2023-01-29T19:24:58.893Z,9.23
2023-01-29T19:28:00.461Z,9.30
2023-01-29T19:31:02.050Z,9.50
2023-01-29T19:34:03.638Z,9.97
2023-01-29T19:37:05.044Z,11.03
2023-01-29T19:40:08.070Z,14.57
2023-01-29T19:43:09.444Z,13.70
2023-01-29T19:46:10.908Z,13.27
2023-01-29T19:49:12.332Z,11.87
2023-01-29T19:52:48.855Z,12.57
2023-01-29T19:56:06.503Z,11.83
2023-01-29T19:59:07.925Z,11.80
2023-01-29T20:02:09.737Z,11.87
2023-01-29T20:05:12.932Z,10.70
2023-01-29T20:08:14.429Z,11.60
2023-01-29T20:11:18.246Z,10.10
2023-01-29T20:14:19.697Z,10.83
2023-01-29T20:17:21.527Z,10.20
2023-01-29T20:20:22.955Z,10.73
2023-01-29T20:23:37.748Z,10.80
2023-01-29T20:26:40.143Z,10.47
2023-01-29T20:29:43.498Z,10.63
2023-01-29T20:32:44.921Z,10.73
2023-01-29T20:35:56.522Z,10.77
2023-01-29T20:38:57.987Z,10.63
2023-01-29T20:41:59.789Z,10.93
2023-01-29T20:45:01.229Z,11.70
2023-01-29T20:48:02.637Z,12.40
2023-01-29T20:51:07.800Z,12.20
2023-01-29T20:54:09.317Z,12.97
2023-01-29T20:57:10.780Z,12.40
2023-01-29T21:00:15.464Z,12.80
2023-01-29T21:03:17.053Z,13.40
2023-01-29T21:06:18.542Z,13.60
2023-01-29T21:09:20.383Z,13.10
2023-01-29T21:12:21.790Z,13.40
2023-01-29T21:15:24.583Z,14.37
2023-01-29T21:18:26.371Z,16.33
2023-01-29T21:21:27.809Z,17.67
2023-01-29T21:24:29.201Z,16.53
2023-01-29T21:27:30.637Z,15.03
2023-01-29T21:30:32.263Z,16.10
2023-01-29T21:33:34.955Z,19.43
2023-01-29T21:36:36.980Z,17.37
2023-01-29T21:39:38.407Z,16.43
2023-01-29T21:42:58.458Z,17.07
2023-01-29T21:46:11.206Z,17.40
2023-01-29T21:49:12.679Z,19.27
2023-01-29T21:52:14.976Z,18.23
2023-01-29T21:55:16.542Z,18.13
2023-01-29T21:58:19.702Z,18.17
2023-01-29T22:01:37.325Z,17.17
2023-01-29T22:04:40.077Z,17.77
2023-01-29T22:07:41.518Z,17.17
2023-01-29T22:10:43.090Z,15.30
2023-01-29T22:13:44.674Z,14.23
2023-01-29T22:16:46.218Z,14.97
2023-01-29T22:19:47.743Z,11.97
2023-01-29T22:22:49.267Z,11.80
2023-01-29T22:25:50.670Z,11.43
2023-01-29T22:28:52.053Z,11.50
2023-01-29T22:31:53.468Z,11.47
2023-01-29T22:34:54.864Z,11.13
2023-01-29T22:37:56.290Z,12.00
2023-01-29T22:41:00.219Z,11.03
2023-01-29T22:44:02.178Z,11.13
2023-01-29T22:47:03.581Z,11.63
2023-01-29T22:50:06.459Z,11.43
2023-01-29T22:53:08.993Z,11.23
2023-01-29T22:56:11.705Z,10.97
2023-01-29T22:59:13.098Z,11.27
2023-01-29T23:02:14.502Z,10.50
2023-01-29T23:05:17.259Z,11.37
2023-01-29T23:08:18.621Z,10.80
2023-01-29T23:11:23.357Z,10.87
2023-01-29T23:14:24.725Z,10.73
2023-01-29T23:17:26.171Z,11.03
2023-01-29T23:20:27.571Z,10.77
2023-01-29T23:23:30.094Z,11.37
2023-01-29T23:26:50.198Z,10.87
2023-01-29T23:29:51.662Z,11.10
2023-01-29T23:32:53.038Z,11.73
2023-01-29T23:35:54.449Z,11.30
2023-01-29T23:38:55.872Z,11.20
2023-01-29T23:41:57.406Z,10.60
2023-01-29T23:44:58.766Z,11.63
2023-01-29T23:48:00.145Z,11.17
2023-01-29T23:51:01.756Z,10.67
2023-01-29T23:54:03.648Z,11.67
2023-01-29T23:57:05.012Z,12.10
